sensor_id;sensor_type;location;lat;lon;timestamp;temperature;humidity
75931;DHT22;64609;47.052;15.462;2023-02-28T00:00:21;6.50;48.20
75931;DHT22;64609;47.052;15.462;2023-02-28T00:02:46;6.50;49.30
75931;DHT22;64609;47.052;15.462;2023-02-28T00:05:15;6.50;49.70
75931;DHT22;64609;47.052;15.462;2023-02-28T00:07:41;6.60;51.10
75931;DHT22;64609;47.052;15.462;2023-02-28T00:10:11;6.60;49.80
75931;DHT22;64609;47.052;15.462;2023-02-28T00:12:37;6.60;50.10
75931;DHT22;64609;47.052;15.462;2023-02-28T00:15:10;6.60;50.50
75931;DHT22;64609;47.052;15.462;2023-02-28T00:17:37;6.60;50.60
75931;DHT22;64609;47.052;15.462;2023-02-28T00:20:04;6.60;50.70
75931;DHT22;64609;47.052;15.462;2023-02-28T00:22:33;6.60;50.80
75931;DHT22;64609;47.052;15.462;2023-02-28T00:24:59;6.60;51.00
75931;DHT22;64609;47.052;15.462;2023-02-28T00:27:25;6.60;50.80
75931;DHT22;64609;47.052;15.462;2023-02-28T00:29:50;6.60;50.90
75931;DHT22;64609;47.052;15.462;2023-02-28T00:32:16;6.60;50.10
75931;DHT22;64609;47.052;15.462;2023-02-28T00:34:43;6.50;50.20
75931;DHT22;64609;47.052;15.462;2023-02-28T00:37:10;6.40;49.60
75931;DHT22;64609;47.052;15.462;2023-02-28T00:39:38;6.40;49.70
75931;DHT22;64609;47.052;15.462;2023-02-28T00:42:04;6.40;50.20
75931;DHT22;64609;47.052;15.462;2023-02-28T00:44:30;6.40;51.00
75931;DHT22;64609;47.052;15.462;2023-02-28T00:46:57;6.40;51.50
75931;DHT22;64609;47.052;15.462;2023-02-28T00:49:24;6.40;52.40
75931;DHT22;64609;47.052;15.462;2023-02-28T00:51:50;6.40;51.80
75931;DHT22;64609;47.052;15.462;2023-02-28T00:54:16;6.50;51.70
75931;DHT22;64609;47.052;15.462;2023-02-28T00:56:41;6.40;51.70
75931;DHT22;64609;47.052;15.462;2023-02-28T00:59:07;6.40;51.90
75931;DHT22;64609;47.052;15.462;2023-02-28T01:01:33;6.40;52.00
75931;DHT22;64609;47.052;15.462;2023-02-28T01:03:59;6.40;52.40
75931;DHT22;64609;47.052;15.462;2023-02-28T01:06:24;6.40;52.00
75931;DHT22;64609;47.052;15.462;2023-02-28T01:08:50;6.40;53.30
75931;DHT22;64609;47.052;15.462;2023-02-28T01:11:19;6.50;53.00
75931;DHT22;64609;47.052;15.462;2023-02-28T01:13:45;6.50;53.80
75931;DHT22;64609;47.052;15.462;2023-02-28T01:16:11;6.50;53.00
75931;DHT22;64609;47.052;15.462;2023-02-28T01:18:37;6.50;52.50
75931;DHT22;64609;47.052;15.462;2023-02-28T01:21:15;6.50;52.60
75931;DHT22;64609;47.052;15.462;2023-02-28T01:23:42;6.50;53.40
75931;DHT22;64609;47.052;15.462;2023-02-28T01:26:10;6.60;54.70
75931;DHT22;64609;47.052;15.462;2023-02-28T01:28:37;6.60;54.20
75931;DHT22;64609;47.052;15.462;2023-02-28T01:31:03;6.60;52.40
75931;DHT22;64609;47.052;15.462;2023-02-28T01:33:29;6.50;53.00
75931;DHT22;64609;47.052;15.462;2023-02-28T01:36:11;6.50;52.60
75931;DHT22;64609;47.052;15.462;2023-02-28T01:38:37;6.40;51.90
75931;DHT22;64609;47.052;15.462;2023-02-28T01:41:03;6.40;51.90
75931;DHT22;64609;47.052;15.462;2023-02-28T01:43:31;6.40;52.10
75931;DHT22;64609;47.052;15.462;2023-02-28T01:45:58;6.40;51.70
75931;DHT22;64609;47.052;15.462;2023-02-28T01:48:36;6.30;51.80
75931;DHT22;64609;47.052;15.462;2023-02-28T01:51:11;6.20;50.70
75931;DHT22;64609;47.052;15.462;2023-02-28T01:53:44;6.10;51.20
75931;DHT22;64609;47.052;15.462;2023-02-28T01:56:12;6.10;51.60
75931;DHT22;64609;47.052;15.462;2023-02-28T01:58:49;6.10;50.90
75931;DHT22;64609;47.052;15.462;2023-02-28T02:01:16;6.10;51.90
75931;DHT22;64609;47.052;15.462;2023-02-28T02:03:52;6.00;50.50
75931;DHT22;64609;47.052;15.462;2023-02-28T02:06:26;5.90;50.10
75931;DHT22;64609;47.052;15.462;2023-02-28T02:08:52;5.90;51.10
75931;DHT22;64609;47.052;15.462;2023-02-28T02:11:20;5.80;51.20
75931;DHT22;64609;47.052;15.462;2023-02-28T02:17:51;6.00;52.10
75931;DHT22;64609;47.052;15.462;2023-02-28T02:25:50;6.00;52.10
75931;DHT22;64609;47.052;15.462;2023-02-28T02:36:28;6.00;52.70
75931;DHT22;64609;47.052;15.462;2023-02-28T02:39:29;6.10;53.10
75931;DHT22;64609;47.052;15.462;2023-02-28T02:41:54;6.10;52.00
75931;DHT22;64609;47.052;15.462;2023-02-28T02:44:27;6.10;52.00
75931;DHT22;64609;47.052;15.462;2023-02-28T02:47:02;6.10;52.00
75931;DHT22;64609;47.052;15.462;2023-02-28T02:49:32;6.10;51.10
75931;DHT22;64609;47.052;15.462;2023-02-28T02:52:03;6.10;51.40
75931;DHT22;64609;47.052;15.462;2023-02-28T02:54:36;6.10;51.10
75931;DHT22;64609;47.052;15.462;2023-02-28T02:57:10;6.10;51.20
75931;DHT22;64609;47.052;15.462;2023-02-28T02:59:38;6.10;51.00
75931;DHT22;64609;47.052;15.462;2023-02-28T03:02:08;6.10;52.40
75931;DHT22;64609;47.052;15.462;2023-02-28T03:04:45;6.10;50.90
75931;DHT22;64609;47.052;15.462;2023-02-28T03:07:12;6.10;51.10
75931;DHT22;64609;47.052;15.462;2023-02-28T03:09:37;6.10;50.90
75931;DHT22;64609;47.052;15.462;2023-02-28T03:12:04;6.10;52.10
75931;DHT22;64609;47.052;15.462;2023-02-28T03:23:23;6.00;50.30
75931;DHT22;64609;47.052;15.462;2023-02-28T03:25:53;5.90;51.10
75931;DHT22;64609;47.052;15.462;2023-02-28T03:31:20;6.00;51.20
75931;DHT22;64609;47.052;15.462;2023-02-28T03:33:51;6.00;52.80
75931;DHT22;64609;47.052;15.462;2023-02-28T03:37:05;6.10;52.50
75931;DHT22;64609;47.052;15.462;2023-02-28T03:39:15;6.10;52.50
75931;DHT22;64609;47.052;15.462;2023-02-28T03:41:54;6.10;51.90
75931;DHT22;64609;47.052;15.462;2023-02-28T03:44:27;6.20;53.00
75931;DHT22;64609;47.052;15.462;2023-02-28T03:47:03;6.20;53.00
75931;DHT22;64609;47.052;15.462;2023-02-28T03:49:41;6.20;53.10
75931;DHT22;64609;47.052;15.462;2023-02-28T03:52:09;6.20;53.40
75931;DHT22;64609;47.052;15.462;2023-02-28T03:54:41;6.20;53.40
75931;DHT22;64609;47.052;15.462;2023-02-28T03:57:33;6.20;53.30
75931;DHT22;64609;47.052;15.462;2023-02-28T04:00:07;6.30;53.20
75931;DHT22;64609;47.052;15.462;2023-02-28T04:02:34;6.30;52.60
75931;DHT22;64609;47.052;15.462;2023-02-28T04:05:00;6.20;52.80
75931;DHT22;64609;47.052;15.462;2023-02-28T04:07:29;6.20;52.40
75931;DHT22;64609;47.052;15.462;2023-02-28T04:10:03;6.20;52.50
75931;DHT22;64609;47.052;15.462;2023-02-28T04:12:29;6.20;52.50
75931;DHT22;64609;47.052;15.462;2023-02-28T04:14:55;6.20;52.90
75931;DHT22;64609;47.052;15.462;2023-02-28T04:17:20;6.20;53.30
75931;DHT22;64609;47.052;15.462;2023-02-28T04:19:46;6.30;53.80
75931;DHT22;64609;47.052;15.462;2023-02-28T04:22:11;6.30;53.60
75931;DHT22;64609;47.052;15.462;2023-02-28T04:24:37;6.40;53.60
75931;DHT22;64609;47.052;15.462;2023-02-28T04:27:08;6.40;53.40
75931;DHT22;64609;47.052;15.462;2023-02-28T04:29:34;6.30;52.30
75931;DHT22;64609;47.052;15.462;2023-02-28T04:32:01;6.20;50.30
75931;DHT22;64609;47.052;15.462;2023-02-28T04:34:28;6.10;51.40
75931;DHT22;64609;47.052;15.462;2023-02-28T04:36:55;6.00;49.70
75931;DHT22;64609;47.052;15.462;2023-02-28T04:39:22;5.80;50.60
75931;DHT22;64609;47.052;15.462;2023-02-28T04:41:48;5.90;51.00
75931;DHT22;64609;47.052;15.462;2023-02-28T04:44:14;5.90;50.70
75931;DHT22;64609;47.052;15.462;2023-02-28T04:46:40;5.90;50.40
75931;DHT22;64609;47.052;15.462;2023-02-28T04:49:06;5.80;50.60
75931;DHT22;64609;47.052;15.462;2023-02-28T04:51:31;5.90;51.20
75931;DHT22;64609;47.052;15.462;2023-02-28T04:53:57;6.00;52.00
75931;DHT22;64609;47.052;15.462;2023-02-28T04:56:23;6.00;49.90
75931;DHT22;64609;47.052;15.462;2023-02-28T04:58:49;6.00;51.60
75931;DHT22;64609;47.052;15.462;2023-02-28T05:01:17;6.10;52.60
75931;DHT22;64609;47.052;15.462;2023-02-28T05:03:43;6.20;52.40
75931;DHT22;64609;47.052;15.462;2023-02-28T05:06:10;6.20;51.80
75931;DHT22;64609;47.052;15.462;2023-02-28T05:08:36;6.20;52.20
75931;DHT22;64609;47.052;15.462;2023-02-28T05:11:03;6.20;52.30
75931;DHT22;64609;47.052;15.462;2023-02-28T05:13:29;6.30;53.10
75931;DHT22;64609;47.052;15.462;2023-02-28T05:15:55;6.30;52.90
75931;DHT22;64609;47.052;15.462;2023-02-28T05:18:21;6.30;52.80
75931;DHT22;64609;47.052;15.462;2023-02-28T05:20:46;6.30;53.00
75931;DHT22;64609;47.052;15.462;2023-02-28T05:23:13;6.30;53.10
75931;DHT22;64609;47.052;15.462;2023-02-28T05:25:40;6.30;54.10
75931;DHT22;64609;47.052;15.462;2023-02-28T05:28:06;6.40;54.90
75931;DHT22;64609;47.052;15.462;2023-02-28T05:30:32;6.50;53.80
75931;DHT22;64609;47.052;15.462;2023-02-28T05:32:58;6.50;53.10
75931;DHT22;64609;47.052;15.462;2023-02-28T05:35:25;6.60;54.20
75931;DHT22;64609;47.052;15.462;2023-02-28T05:37:51;6.60;53.40
75931;DHT22;64609;47.052;15.462;2023-02-28T05:40:17;6.60;52.90
75931;DHT22;64609;47.052;15.462;2023-02-28T05:42:44;6.60;53.50
75931;DHT22;64609;47.052;15.462;2023-02-28T05:45:10;6.60;54.60
75931;DHT22;64609;47.052;15.462;2023-02-28T05:47:36;6.70;53.50
75931;DHT22;64609;47.052;15.462;2023-02-28T05:50:03;6.70;53.20
75931;DHT22;64609;47.052;15.462;2023-02-28T05:52:29;6.70;53.00
75931;DHT22;64609;47.052;15.462;2023-02-28T05:54:55;6.70;53.60
75931;DHT22;64609;47.052;15.462;2023-02-28T05:57:22;6.70;54.10
75931;DHT22;64609;47.052;15.462;2023-02-28T05:59:48;6.70;52.90
75931;DHT22;64609;47.052;15.462;2023-02-28T06:02:15;6.70;52.80
75931;DHT22;64609;47.052;15.462;2023-02-28T06:04:41;6.70;52.70
75931;DHT22;64609;47.052;15.462;2023-02-28T06:07:07;6.70;53.30
75931;DHT22;64609;47.052;15.462;2023-02-28T06:09:33;6.70;53.20
75931;DHT22;64609;47.052;15.462;2023-02-28T06:12:00;6.70;53.00
75931;DHT22;64609;47.052;15.462;2023-02-28T06:14:27;6.70;52.80
75931;DHT22;64609;47.052;15.462;2023-02-28T06:16:53;6.70;52.90
75931;DHT22;64609;47.052;15.462;2023-02-28T06:19:18;6.70;52.90
75931;DHT22;64609;47.052;15.462;2023-02-28T06:21:44;6.70;54.00
75931;DHT22;64609;47.052;15.462;2023-02-28T06:24:10;6.70;53.50
75931;DHT22;64609;47.052;15.462;2023-02-28T06:26:36;6.70;53.20
75931;DHT22;64609;47.052;15.462;2023-02-28T06:29:02;6.70;54.20
75931;DHT22;64609;47.052;15.462;2023-02-28T06:31:28;6.70;53.10
75931;DHT22;64609;47.052;15.462;2023-02-28T06:33:55;6.60;52.80
75931;DHT22;64609;47.052;15.462;2023-02-28T06:36:21;6.70;54.40
75931;DHT22;64609;47.052;15.462;2023-02-28T06:38:47;6.70;53.60
75931;DHT22;64609;47.052;15.462;2023-02-28T06:41:17;6.70;53.50
75931;DHT22;64609;47.052;15.462;2023-02-28T06:43:43;6.70;53.20
75931;DHT22;64609;47.052;15.462;2023-02-28T06:46:12;6.70;52.90
75931;DHT22;64609;47.052;15.462;2023-02-28T06:48:39;6.60;53.80
75931;DHT22;64609;47.052;15.462;2023-02-28T06:51:13;6.70;54.60
75931;DHT22;64609;47.052;15.462;2023-02-28T06:53:40;6.70;52.70
75931;DHT22;64609;47.052;15.462;2023-02-28T06:56:13;6.70;54.50
75931;DHT22;64609;47.052;15.462;2023-02-28T06:58:39;6.70;53.60
75931;DHT22;64609;47.052;15.462;2023-02-28T07:01:07;6.70;53.80
75931;DHT22;64609;47.052;15.462;2023-02-28T07:03:32;6.70;53.10
75931;DHT22;64609;47.052;15.462;2023-02-28T07:05:58;6.60;52.20
75931;DHT22;64609;47.052;15.462;2023-02-28T07:08:24;6.50;51.90
75931;DHT22;64609;47.052;15.462;2023-02-28T07:10:54;6.50;51.60
75931;DHT22;64609;47.052;15.462;2023-02-28T07:13:20;6.40;51.90
75931;DHT22;64609;47.052;15.462;2023-02-28T07:15:56;6.40;52.10
75931;DHT22;64609;47.052;15.462;2023-02-28T07:18:22;6.50;52.90
75931;DHT22;64609;47.052;15.462;2023-02-28T07:20:49;6.50;52.90
75931;DHT22;64609;47.052;15.462;2023-02-28T07:23:15;6.40;51.90
75931;DHT22;64609;47.052;15.462;2023-02-28T07:25:40;6.50;54.10
75931;DHT22;64609;47.052;15.462;2023-02-28T07:28:06;6.50;52.60
75931;DHT22;64609;47.052;15.462;2023-02-28T07:30:32;6.50;52.20
75931;DHT22;64609;47.052;15.462;2023-02-28T07:32:57;6.60;52.10
75931;DHT22;64609;47.052;15.462;2023-02-28T07:35:23;6.50;53.50
75931;DHT22;64609;47.052;15.462;2023-02-28T07:37:48;6.50;53.70
75931;DHT22;64609;47.052;15.462;2023-02-28T07:40:14;6.60;53.20
75931;DHT22;64609;47.052;15.462;2023-02-28T07:42:41;6.60;52.50
75931;DHT22;64609;47.052;15.462;2023-02-28T07:45:08;6.50;51.00
75931;DHT22;64609;47.052;15.462;2023-02-28T07:47:39;6.40;50.60
75931;DHT22;64609;47.052;15.462;2023-02-28T07:50:08;6.20;50.90
75931;DHT22;64609;47.052;15.462;2023-02-28T07:52:34;6.30;53.60
75931;DHT22;64609;47.052;15.462;2023-02-28T07:55:01;6.40;52.00
75931;DHT22;64609;47.052;15.462;2023-02-28T07:57:26;6.40;53.10
75931;DHT22;64609;47.052;15.462;2023-02-28T07:59:52;6.50;53.60
75931;DHT22;64609;47.052;15.462;2023-02-28T08:02:18;6.70;54.40
75931;DHT22;64609;47.052;15.462;2023-02-28T08:04:44;6.70;54.10
75931;DHT22;64609;47.052;15.462;2023-02-28T08:07:12;6.80;53.80
75931;DHT22;64609;47.052;15.462;2023-02-28T08:09:41;6.80;51.80
75931;DHT22;64609;47.052;15.462;2023-02-28T08:12:08;6.70;51.80
75931;DHT22;64609;47.052;15.462;2023-02-28T08:14:34;6.70;53.10
75931;DHT22;64609;47.052;15.462;2023-02-28T08:17:00;6.70;52.20
75931;DHT22;64609;47.052;15.462;2023-02-28T08:19:25;6.80;53.20
75931;DHT22;64609;47.052;15.462;2023-02-28T08:21:51;6.80;53.60
75931;DHT22;64609;47.052;15.462;2023-02-28T08:24:17;6.90;52.90
75931;DHT22;64609;47.052;15.462;2023-02-28T08:26:43;7.00;53.50
75931;DHT22;64609;47.052;15.462;2023-02-28T08:29:08;7.10;53.00
75931;DHT22;64609;47.052;15.462;2023-02-28T08:31:34;7.10;53.00
75931;DHT22;64609;47.052;15.462;2023-02-28T08:34:05;7.20;53.40
75931;DHT22;64609;47.052;15.462;2023-02-28T08:36:31;7.20;54.20
75931;DHT22;64609;47.052;15.462;2023-02-28T08:38:57;7.30;52.30
75931;DHT22;64609;47.052;15.462;2023-02-28T08:41:23;7.20;51.30
75931;DHT22;64609;47.052;15.462;2023-02-28T08:43:49;7.10;51.40
75931;DHT22;64609;47.052;15.462;2023-02-28T08:46:14;7.10;51.60
75931;DHT22;64609;47.052;15.462;2023-02-28T08:48:40;7.20;53.90
75931;DHT22;64609;47.052;15.462;2023-02-28T08:51:09;7.20;52.40
75931;DHT22;64609;47.052;15.462;2023-02-28T08:53:36;7.30;52.60
75931;DHT22;64609;47.052;15.462;2023-02-28T08:56:10;7.20;50.50
75931;DHT22;64609;47.052;15.462;2023-02-28T08:58:36;7.10;50.80
75931;DHT22;64609;47.052;15.462;2023-02-28T09:01:31;7.10;50.50
75931;DHT22;64609;47.052;15.462;2023-02-28T09:03:58;6.80;49.40
75931;DHT22;64609;47.052;15.462;2023-02-28T09:06:26;6.70;51.30
75931;DHT22;64609;47.052;15.462;2023-02-28T09:08:52;6.90;52.40
75931;DHT22;64609;47.052;15.462;2023-02-28T09:11:18;6.90;50.60
75931;DHT22;64609;47.052;15.462;2023-02-28T09:13:45;6.90;51.50
75931;DHT22;64609;47.052;15.462;2023-02-28T09:16:13;7.10;52.40
75931;DHT22;64609;47.052;15.462;2023-02-28T09:18:39;7.20;53.60
75931;DHT22;64609;47.052;15.462;2023-02-28T09:21:06;7.30;52.00
75931;DHT22;64609;47.052;15.462;2023-02-28T09:23:32;7.20;50.70
75931;DHT22;64609;47.052;15.462;2023-02-28T09:25:58;7.30;52.00
75931;DHT22;64609;47.052;15.462;2023-02-28T09:28:24;7.40;53.80
75931;DHT22;64609;47.052;15.462;2023-02-28T09:30:52;7.40;51.10
75931;DHT22;64609;47.052;15.462;2023-02-28T09:33:19;7.40;52.50
75931;DHT22;64609;47.052;15.462;2023-02-28T09:35:47;7.40;51.00
75931;DHT22;64609;47.052;15.462;2023-02-28T09:38:12;7.40;50.80
75931;DHT22;64609;47.052;15.462;2023-02-28T09:40:59;7.50;52.20
75931;DHT22;64609;47.052;15.462;2023-02-28T09:43:29;7.50;50.80
75931;DHT22;64609;47.052;15.462;2023-02-28T09:46:25;7.40;52.00
75931;DHT22;64609;47.052;15.462;2023-02-28T09:48:47;7.40;49.80
75931;DHT22;64609;47.052;15.462;2023-02-28T09:54:24;7.50;51.10
75931;DHT22;64609;47.052;15.462;2023-02-28T10:04:59;7.90;50.40
75931;DHT22;64609;47.052;15.462;2023-02-28T10:10:40;7.60;49.30
75931;DHT22;64609;47.052;15.462;2023-02-28T10:15:59;7.70;50.30
75931;DHT22;64609;47.052;15.462;2023-02-28T10:18:41;7.80;49.40
75931;DHT22;64609;47.052;15.462;2023-02-28T10:21:19;7.90;49.00
75931;DHT22;64609;47.052;15.462;2023-02-28T10:23:46;7.80;49.10
75931;DHT22;64609;47.052;15.462;2023-02-28T10:26:14;8.00;50.30
75931;DHT22;64609;47.052;15.462;2023-02-28T10:28:42;8.10;48.90
75931;DHT22;64609;47.052;15.462;2023-02-28T10:31:16;8.20;49.90
75931;DHT22;64609;47.052;15.462;2023-02-28T10:33:43;8.40;49.20
75931;DHT22;64609;47.052;15.462;2023-02-28T10:36:14;8.40;48.20
75931;DHT22;64609;47.052;15.462;2023-02-28T10:38:42;8.30;47.10
75931;DHT22;64609;47.052;15.462;2023-02-28T10:41:18;8.10;48.00
75931;DHT22;64609;47.052;15.462;2023-02-28T10:43:52;8.10;48.80
75931;DHT22;64609;47.052;15.462;2023-02-28T10:46:19;8.30;50.50
75931;DHT22;64609;47.052;15.462;2023-02-28T10:49:03;8.50;50.20
75931;DHT22;64609;47.052;15.462;2023-02-28T10:51:38;8.00;46.80
75931;DHT22;64609;47.052;15.462;2023-02-28T10:54:05;7.80;46.90
75931;DHT22;64609;47.052;15.462;2023-02-28T10:56:31;7.80;49.40
75931;DHT22;64609;47.052;15.462;2023-02-28T11:01:48;8.10;48.70
75931;DHT22;64609;47.052;15.462;2023-02-28T11:07:21;8.50;48.70
75931;DHT22;64609;47.052;15.462;2023-02-28T11:09:52;8.50;46.60
75931;DHT22;64609;47.052;15.462;2023-02-28T11:12:39;8.10;47.10
75931;DHT22;64609;47.052;15.462;2023-02-28T11:15:28;8.10;47.30
75931;DHT22;64609;47.052;15.462;2023-02-28T11:17:56;8.30;47.70
75931;DHT22;64609;47.052;15.462;2023-02-28T11:20:26;8.20;47.80
75931;DHT22;64609;47.052;15.462;2023-02-28T11:22:53;8.50;48.30
75931;DHT22;64609;47.052;15.462;2023-02-28T11:25:35;8.90;47.60
75931;DHT22;64609;47.052;15.462;2023-02-28T11:28:05;9.20;47.00
75931;DHT22;64609;47.052;15.462;2023-02-28T11:30:40;9.40;47.70
75931;DHT22;64609;47.052;15.462;2023-02-28T11:33:26;9.60;47.30
75931;DHT22;64609;47.052;15.462;2023-02-28T11:35:57;9.90;46.60
75931;DHT22;64609;47.052;15.462;2023-02-28T11:38:25;10.00;45.80
75931;DHT22;64609;47.052;15.462;2023-02-28T11:51:28;10.10;46.50
75931;DHT22;64609;47.052;15.462;2023-02-28T11:54:35;10.30;46.80
75931;DHT22;64609;47.052;15.462;2023-02-28T12:00:00;10.10;44.60
75931;DHT22;64609;47.052;15.462;2023-02-28T12:11:19;10.40;44.30
75931;DHT22;64609;47.052;15.462;2023-02-28T12:16:50;10.30;44.00
75931;DHT22;64609;47.052;15.462;2023-02-28T12:19:22;10.20;44.30
75931;DHT22;64609;47.052;15.462;2023-02-28T12:21:55;10.20;44.20
75931;DHT22;64609;47.052;15.462;2023-02-28T12:26:58;9.90;44.40
75931;DHT22;64609;47.052;15.462;2023-02-28T12:29:29;9.80;45.10
75931;DHT22;64609;47.052;15.462;2023-02-28T12:32:15;9.90;45.30
75931;DHT22;64609;47.052;15.462;2023-02-28T12:34:48;9.90;44.50
75931;DHT22;64609;47.052;15.462;2023-02-28T12:37:27;9.90;46.90
75931;DHT22;64609;47.052;15.462;2023-02-28T12:40:00;10.10;45.40
75931;DHT22;64609;47.052;15.462;2023-02-28T12:42:29;10.20;45.10
75931;DHT22;64609;47.052;15.462;2023-02-28T12:47:24;9.60;44.80
75931;DHT22;64609;47.052;15.462;2023-02-28T12:49:54;9.70;45.80
75931;DHT22;64609;47.052;15.462;2023-02-28T12:58:15;10.00;45.40
75931;DHT22;64609;47.052;15.462;2023-02-28T13:09:16;10.10;45.00
75931;DHT22;64609;47.052;15.462;2023-02-28T13:11:48;10.10;45.30
75931;DHT22;64609;47.052;15.462;2023-02-28T13:19:55;9.80;47.00
75931;DHT22;64609;47.052;15.462;2023-02-28T13:22:41;9.90;45.60
75931;DHT22;64609;47.052;15.462;2023-02-28T13:27:53;10.30;47.00
75931;DHT22;64609;47.052;15.462;2023-02-28T13:38:49;10.10;46.70
75931;DHT22;64609;47.052;15.462;2023-02-28T13:44:20;10.20;46.50
75931;DHT22;64609;47.052;15.462;2023-02-28T14:08:35;10.60;46.90
75931;DHT22;64609;47.052;15.462;2023-02-28T14:11:06;10.60;44.80
75931;DHT22;64609;47.052;15.462;2023-02-28T14:16:24;10.60;45.00
75931;DHT22;64609;47.052;15.462;2023-02-28T14:19:01;10.60;45.00
75931;DHT22;64609;47.052;15.462;2023-02-28T14:21:34;10.50;45.10
75931;DHT22;64609;47.052;15.462;2023-02-28T14:24:32;10.30;43.90
75931;DHT22;64609;47.052;15.462;2023-02-28T14:32:06;10.40;44.60
75931;DHT22;64609;47.052;15.462;2023-02-28T14:37:27;10.40;43.60
75931;DHT22;64609;47.052;15.462;2023-02-28T14:39:54;10.30;44.40
75931;DHT22;64609;47.052;15.462;2023-02-28T14:42:34;10.30;43.80
75931;DHT22;64609;47.052;15.462;2023-02-28T14:45:01;10.20;44.20
75931;DHT22;64609;47.052;15.462;2023-02-28T14:47:33;10.40;44.70
75931;DHT22;64609;47.052;15.462;2023-02-28T14:50:01;10.50;44.70
75931;DHT22;64609;47.052;15.462;2023-02-28T14:52:31;10.60;44.50
75931;DHT22;64609;47.052;15.462;2023-02-28T14:55:06;10.60;44.90
75931;DHT22;64609;47.052;15.462;2023-02-28T14:57:42;10.70;45.90
75931;DHT22;64609;47.052;15.462;2023-02-28T15:00:19;10.70;44.00
75931;DHT22;64609;47.052;15.462;2023-02-28T15:02:46;10.70;43.80
75931;DHT22;64609;47.052;15.462;2023-02-28T15:07:47;10.60;44.50
75931;DHT22;64609;47.052;15.462;2023-02-28T15:12:40;10.60;44.00
75931;DHT22;64609;47.052;15.462;2023-02-28T15:15:15;10.50;45.60
75931;DHT22;64609;47.052;15.462;2023-02-28T15:17:43;10.70;45.00
75931;DHT22;64609;47.052;15.462;2023-02-28T15:20:12;10.70;43.70
75931;DHT22;64609;47.052;15.462;2023-02-28T15:22:39;10.50;44.20
75931;DHT22;64609;47.052;15.462;2023-02-28T15:25:06;10.50;45.30
75931;DHT22;64609;47.052;15.462;2023-02-28T15:27:45;10.50;45.80
75931;DHT22;64609;47.052;15.462;2023-02-28T15:30:30;10.50;44.80
75931;DHT22;64609;47.052;15.462;2023-02-28T15:33:24;10.50;45.20
75931;DHT22;64609;47.052;15.462;2023-02-28T15:35:50;10.60;44.70
75931;DHT22;64609;47.052;15.462;2023-02-28T15:38:27;10.60;45.20
75931;DHT22;64609;47.052;15.462;2023-02-28T15:40:57;10.50;44.10
75931;DHT22;64609;47.052;15.462;2023-02-28T15:43:30;10.20;44.30
75931;DHT22;64609;47.052;15.462;2023-02-28T15:51:16;10.10;45.10
75931;DHT22;64609;47.052;15.462;2023-02-28T15:54:01;10.10;45.20
75931;DHT22;64609;47.052;15.462;2023-02-28T15:56:38;10.10;45.50
75931;DHT22;64609;47.052;15.462;2023-02-28T15:59:06;10.10;45.70
75931;DHT22;64609;47.052;15.462;2023-02-28T16:01:37;10.10;45.60
75931;DHT22;64609;47.052;15.462;2023-02-28T16:04:05;10.00;45.80
75931;DHT22;64609;47.052;15.462;2023-02-28T16:07:24;10.00;46.10
75931;DHT22;64609;47.052;15.462;2023-02-28T16:09:24;9.90;45.50
75931;DHT22;64609;47.052;15.462;2023-02-28T16:11:54;9.90;47.30
75931;DHT22;64609;47.052;15.462;2023-02-28T16:14:23;9.90;46.70
75931;DHT22;64609;47.052;15.462;2023-02-28T16:16:52;9.80;46.80
75931;DHT22;64609;47.052;15.462;2023-02-28T16:19:19;9.80;47.20
75931;DHT22;64609;47.052;15.462;2023-02-28T16:21:45;9.80;47.30
75931;DHT22;64609;47.052;15.462;2023-02-28T16:24:11;9.80;47.40
75931;DHT22;64609;47.052;15.462;2023-02-28T16:26:36;9.80;47.80
75931;DHT22;64609;47.052;15.462;2023-02-28T16:29:04;9.80;47.20
75931;DHT22;64609;47.052;15.462;2023-02-28T16:31:35;9.70;47.40
75931;DHT22;64609;47.052;15.462;2023-02-28T16:34:02;9.70;47.20
75931;DHT22;64609;47.052;15.462;2023-02-28T16:36:28;9.60;47.90
75931;DHT22;64609;47.052;15.462;2023-02-28T16:38:54;9.60;47.30
75931;DHT22;64609;47.052;15.462;2023-02-28T16:41:22;9.50;47.30
75931;DHT22;64609;47.052;15.462;2023-02-28T16:43:51;9.50;47.10
75931;DHT22;64609;47.052;15.462;2023-02-28T16:46:18;9.40;47.00
75931;DHT22;64609;47.052;15.462;2023-02-28T16:48:45;9.40;47.90
75931;DHT22;64609;47.052;15.462;2023-02-28T16:51:13;9.30;47.90
75931;DHT22;64609;47.052;15.462;2023-02-28T16:53:39;9.30;49.90
75931;DHT22;64609;47.052;15.462;2023-02-28T16:56:06;9.30;48.80
75931;DHT22;64609;47.052;15.462;2023-02-28T16:58:32;9.30;49.40
75931;DHT22;64609;47.052;15.462;2023-02-28T17:01:01;9.30;50.70
75931;DHT22;64609;47.052;15.462;2023-02-28T17:03:28;9.30;49.70
75931;DHT22;64609;47.052;15.462;2023-02-28T17:05:54;9.30;50.40
75931;DHT22;64609;47.052;15.462;2023-02-28T17:08:20;9.20;49.70
75931;DHT22;64609;47.052;15.462;2023-02-28T17:10:46;9.20;50.10
75931;DHT22;64609;47.052;15.462;2023-02-28T17:13:11;9.10;48.90
75931;DHT22;64609;47.052;15.462;2023-02-28T17:15:37;9.10;50.00
75931;DHT22;64609;47.052;15.462;2023-02-28T17:18:04;9.10;50.80
75931;DHT22;64609;47.052;15.462;2023-02-28T17:20:30;9.00;49.90
75931;DHT22;64609;47.052;15.462;2023-02-28T17:22:55;9.00;50.00
75931;DHT22;64609;47.052;15.462;2023-02-28T17:25:22;9.00;49.80
75931;DHT22;64609;47.052;15.462;2023-02-28T17:27:48;8.90;50.70
75931;DHT22;64609;47.052;15.462;2023-02-28T17:32:41;8.90;50.80
75931;DHT22;64609;47.052;15.462;2023-02-28T17:35:07;8.90;52.00
75931;DHT22;64609;47.052;15.462;2023-02-28T17:37:33;8.90;50.70
75931;DHT22;64609;47.052;15.462;2023-02-28T17:39:59;8.90;50.30
75931;DHT22;64609;47.052;15.462;2023-02-28T17:42:24;8.90;50.70
75931;DHT22;64609;47.052;15.462;2023-02-28T17:44:50;8.80;50.30
75931;DHT22;64609;47.052;15.462;2023-02-28T17:47:16;8.80;51.10
75931;DHT22;64609;47.052;15.462;2023-02-28T17:49:41;8.80;50.50
75931;DHT22;64609;47.052;15.462;2023-02-28T17:52:08;8.80;51.60
75931;DHT22;64609;47.052;15.462;2023-02-28T17:54:33;8.80;51.20
75931;DHT22;64609;47.052;15.462;2023-02-28T17:56:59;8.80;52.20
75931;DHT22;64609;47.052;15.462;2023-02-28T17:59:25;8.80;51.10
75931;DHT22;64609;47.052;15.462;2023-02-28T18:02:01;8.80;51.50
75931;DHT22;64609;47.052;15.462;2023-02-28T18:04:27;8.70;51.30
75931;DHT22;64609;47.052;15.462;2023-02-28T18:06:53;8.70;52.10
75931;DHT22;64609;47.052;15.462;2023-02-28T18:09:20;8.70;51.60
75931;DHT22;64609;47.052;15.462;2023-02-28T18:11:51;8.70;51.30
75931;DHT22;64609;47.052;15.462;2023-02-28T18:14:18;8.60;50.80
75931;DHT22;64609;47.052;15.462;2023-02-28T18:16:44;8.50;51.00
75931;DHT22;64609;47.052;15.462;2023-02-28T18:19:11;8.50;50.90
75931;DHT22;64609;47.052;15.462;2023-02-28T18:21:43;8.50;51.00